createdAt,value
2018-04-28T00:01:03.945Z,99.90
2018-04-28T00:03:33.728Z,99.90
2018-04-28T00:06:03.744Z,99.90
2018-04-28T00:08:39.188Z,99.90
2018-04-28T00:11:07.188Z,99.90
2018-04-28T00:13:36.960Z,99.90
2018-04-28T00:16:04.981Z,99.90
2018-04-28T00:18:40.356Z,99.90
2018-04-28T00:21:10.145Z,99.90
2018-04-28T00:23:40.957Z,99.90
2018-04-28T00:26:11.660Z,99.90
2018-04-28T00:28:51.392Z,99.90
2018-04-28T00:31:30.964Z,99.90
2018-04-28T00:34:10.468Z,99.90
2018-04-28T00:36:59.193Z,99.90
2018-04-28T00:39:27.238Z,99.90
2018-04-28T00:41:56.573Z,99.90
2018-04-28T00:44:25.522Z,99.90
2018-04-28T01:00:39.000Z,99.90
2018-04-28T01:03:08.940Z,99.90
2018-04-28T01:05:51.868Z,99.90
2018-04-28T01:08:29.647Z,99.90
2018-04-28T01:11:04.172Z,99.90
2018-04-28T01:40:40.000Z,99.90
2018-04-28T01:43:17.781Z,99.90
2018-04-28T01:46:06.556Z,99.90
2018-04-28T01:48:41.316Z,99.90
2018-04-28T01:51:15.188Z,99.90
2018-04-28T02:07:27.592Z,99.90
2018-04-28T02:09:56.572Z,99.90
2018-04-28T02:25:53.413Z,99.90
2018-04-28T02:42:05.472Z,99.90
2018-04-28T02:44:36.397Z,99.90
2018-04-28T02:47:09.961Z,99.90
2018-04-28T02:49:44.276Z,99.90
2018-04-28T02:52:19.108Z,99.90
2018-04-28T02:54:54.784Z,99.90
2018-04-28T02:57:25.589Z,99.90
2018-04-28T03:00:00.237Z,99.90
2018-04-28T03:02:33.896Z,99.90
2018-04-28T03:05:14.540Z,99.90
2018-04-28T03:08:04.076Z,99.90
2018-04-28T03:10:49.676Z,99.90
2018-04-28T03:13:36.096Z,99.90
2018-04-28T03:16:10.600Z,99.90
2018-04-28T03:18:39.616Z,99.90
2018-04-28T03:21:08.408Z,99.90
2018-04-28T03:23:38.035Z,99.90
2018-04-28T03:26:06.803Z,99.90
2018-04-28T03:28:38.096Z,99.90
2018-04-28T03:31:12.958Z,99.90
2018-04-28T03:33:45.479Z,99.90
2018-04-28T03:36:27.620Z,99.90
2018-04-28T03:39:01.160Z,99.90
2018-04-28T03:41:30.995Z,99.90
2018-04-28T03:44:08.379Z,99.90
2018-04-28T03:46:37.175Z,99.90
2018-04-28T03:49:13.019Z,99.90
2018-04-28T03:51:54.463Z,99.90
2018-04-28T03:54:26.321Z,99.90
2018-04-28T03:56:57.123Z,99.90
2018-04-28T03:59:36.579Z,99.90
2018-04-28T04:02:16.675Z,99.90
2018-04-28T04:04:47.687Z,99.90
2018-04-28T04:07:18.375Z,99.90
2018-04-28T04:09:48.763Z,99.90
2018-04-28T04:12:38.410Z,99.90
2018-04-28T04:15:11.087Z,99.90
2018-04-28T04:17:53.942Z,99.90
2018-04-28T04:23:28.959Z,99.90
2018-04-28T04:28:59.326Z,99.90
2018-04-28T04:31:52.043Z,99.90
2018-04-28T04:34:45.426Z,99.90
2018-04-28T04:37:15.330Z,99.90
2018-04-28T04:40:01.680Z,99.90
2018-04-28T04:42:46.124Z,99.90
2018-04-28T04:45:35.702Z,99.90
2018-04-28T04:48:09.586Z,99.90
2018-04-28T04:53:56.810Z,99.90
2018-04-28T05:10:21.553Z,99.90
2018-04-28T05:13:07.054Z,99.90
2018-04-28T05:18:48.798Z,99.90
2018-04-28T05:21:28.790Z,99.90
2018-04-28T05:24:00.294Z,99.90
2018-04-28T05:40:09.311Z,99.90
2018-04-28T05:42:45.834Z,99.70
2018-04-28T05:48:15.717Z,99.80
2018-04-28T05:51:05.286Z,99.80
2018-04-28T05:53:58.959Z,99.90
2018-04-28T05:56:45.495Z,99.40
2018-04-28T05:59:33.204Z,97.60
2018-04-28T06:15:35.619Z,85.20
2018-04-28T06:18:12.439Z,83.00
2018-04-28T06:20:42.239Z,78.70
2018-04-28T06:23:10.246Z,73.50
2018-04-28T06:25:39.011Z,67.10
2018-04-28T06:28:07.039Z,67.00
2018-04-28T06:30:35.043Z,64.90
2018-04-28T06:33:03.054Z,64.30
2018-04-28T06:35:31.846Z,60.40
2018-04-28T06:37:59.850Z,60.30
2018-04-28T06:40:27.862Z,61.30
2018-04-28T06:43:00.816Z,58.90
2018-04-28T06:45:28.823Z,58.90
2018-04-28T06:47:57.592Z,58.70
2018-04-28T06:50:27.598Z,58.60
2018-04-28T06:52:55.606Z,60.90
2018-04-28T06:55:23.618Z,63.20
2018-04-28T06:57:53.530Z,63.70
2018-04-28T07:00:22.482Z,62.60
2018-04-28T07:02:50.482Z,61.60
2018-04-28T07:05:18.502Z,61.80
2018-04-28T07:07:47.270Z,59.80
2018-04-28T07:10:15.275Z,59.80
2018-04-28T07:12:44.222Z,60.80
2018-04-28T07:15:12.219Z,59.70
2018-04-28T07:17:44.558Z,58.30
2018-04-28T07:33:18.618Z,56.60
2018-04-28T07:35:49.522Z,56.60
2018-04-28T07:38:20.230Z,52.90
2018-04-28T07:40:52.064Z,52.80
2018-04-28T07:43:20.071Z,52.50
2018-04-28T07:45:52.207Z,50.90
2018-04-28T07:48:28.874Z,48.70
2018-04-28T07:51:00.635Z,48.70
2018-04-28T07:53:28.635Z,48.10
2018-04-28T07:55:56.646Z,50.20
2018-04-28T07:58:24.639Z,50.00
2018-04-28T08:00:53.523Z,48.80
2018-04-28T08:03:23.446Z,49.50
2018-04-28T08:05:52.223Z,45.60
2018-04-28T08:08:20.227Z,45.60
2018-04-28T08:10:48.250Z,45.90
2018-04-28T08:13:18.215Z,44.70
2018-04-28T08:15:51.903Z,44.50
2018-04-28T08:18:23.489Z,40.50
2018-04-28T08:20:56.637Z,39.70
2018-04-28T08:23:25.278Z,39.70
2018-04-28T08:25:55.218Z,38.20
2018-04-28T08:28:23.463Z,36.40
2018-04-28T08:30:55.871Z,34.40
2018-04-28T08:33:23.890Z,34.40
2018-04-28T08:35:52.662Z,32.30
2018-04-28T08:38:21.634Z,32.20
2018-04-28T08:40:50.526Z,32.70
2018-04-28T08:43:18.522Z,33.50
2018-04-28T08:45:47.627Z,32.40
2018-04-28T08:48:17.242Z,32.40
2018-04-28T08:50:49.955Z,32.10
2018-04-28T08:53:19.886Z,32.00
2018-04-28T08:55:51.250Z,32.30
2018-04-28T08:58:20.170Z,31.90
2018-04-28T09:00:57.486Z,33.00
2018-04-28T09:03:25.510Z,33.00
2018-04-28T09:05:54.269Z,34.70
2018-04-28T09:08:27.774Z,34.70
2018-04-28T09:10:55.769Z,35.90
2018-04-28T09:13:24.537Z,35.90
2018-04-28T09:15:52.549Z,36.50
2018-04-28T09:18:21.470Z,36.10
2018-04-28T09:20:49.477Z,36.10
2018-04-28T09:23:17.522Z,36.90
2018-04-28T09:25:45.534Z,36.90
2018-04-28T09:28:15.318Z,37.10
2018-04-28T09:30:43.362Z,37.00
2018-04-28T09:33:11.374Z,37.20
2018-04-28T09:35:41.355Z,36.90
2018-04-28T09:38:19.146Z,37.20
2018-04-28T09:40:56.966Z,36.40
2018-04-28T09:43:24.974Z,36.30
2018-04-28T09:46:01.445Z,35.40
2018-04-28T09:48:33.074Z,35.40
2018-04-28T09:51:02.286Z,35.10
2018-04-28T09:53:31.067Z,35.20
2018-04-28T09:55:59.855Z,35.60
2018-04-28T09:58:30.542Z,34.40
2018-04-28T10:00:58.542Z,34.30
2018-04-28T10:03:30.294Z,33.30
2018-04-28T10:05:58.360Z,32.80
2018-04-28T10:08:28.962Z,32.60
2018-04-28T10:11:00.662Z,32.50
2018-04-28T10:13:30.560Z,34.20
2018-04-28T10:15:58.562Z,34.90
2018-04-28T10:18:33.742Z,34.00
2018-04-28T10:21:01.713Z,34.00
2018-04-28T10:23:29.713Z,34.10
2018-04-28T10:25:59.633Z,33.20
2018-04-28T10:28:27.633Z,34.00
2018-04-28T10:31:00.153Z,33.50
2018-04-28T10:33:32.722Z,33.50
2018-04-28T10:36:04.594Z,34.40
2018-04-28T10:38:32.610Z,34.90
2018-04-28T10:41:01.374Z,32.90
2018-04-28T10:43:30.349Z,32.90
2018-04-28T10:45:58.349Z,32.10
2018-04-28T10:48:30.270Z,31.40
2018-04-28T10:50:58.285Z,31.30
2018-04-28T10:53:30.918Z,29.50
2018-04-28T10:56:02.353Z,29.50
2018-04-28T10:58:34.505Z,29.40
2018-04-28T11:01:07.553Z,29.30
2018-04-28T11:03:39.081Z,29.30
2018-04-28T11:06:08.540Z,29.30
2018-04-28T11:08:37.278Z,26.60
2018-04-28T11:13:59.234Z,26.70
2018-04-28T11:16:30.461Z,26.50
2018-04-28T11:19:06.091Z,26.00
2018-04-28T11:21:34.126Z,26.00
2018-04-28T11:24:05.422Z,26.30
2018-04-28T11:26:39.746Z,25.60
2018-04-28T11:29:07.750Z,25.60
2018-04-28T11:31:36.511Z,25.40
2018-04-28T11:34:04.534Z,25.40
2018-04-28T11:36:32.554Z,25.50
2018-04-28T11:39:00.566Z,25.60
2018-04-28T11:41:32.505Z,24.50
2018-04-28T11:44:01.286Z,26.20
2018-04-28T11:46:30.054Z,26.20
2018-04-28T11:48:58.078Z,26.20
2018-04-28T11:51:29.246Z,26.90
2018-04-28T11:53:57.358Z,26.50
2018-04-28T11:56:27.130Z,25.10
2018-04-28T11:58:56.045Z,25.00
2018-04-28T12:01:24.949Z,23.70
2018-04-28T12:03:53.809Z,23.30
2018-04-28T12:06:21.803Z,23.30
2018-04-28T12:08:51.522Z,24.00
2018-04-28T12:11:24.813Z,24.80
2018-04-28T12:13:53.594Z,26.30
2018-04-28T12:16:22.355Z,27.40
2018-04-28T12:18:50.349Z,27.30
2018-04-28T12:21:22.901Z,27.60
2018-04-28T12:23:50.933Z,27.60
2018-04-28T12:26:21.985Z,26.90
2018-04-28T12:28:54.505Z,26.30
2018-04-28T12:31:22.501Z,26.30
2018-04-28T12:33:50.525Z,25.70
2018-04-28T12:36:19.521Z,24.60
2018-04-28T12:38:47.526Z,25.00
2018-04-28T12:41:19.753Z,24.80
2018-04-28T12:43:48.229Z,24.80
2018-04-28T12:46:19.309Z,23.90
2018-04-28T12:48:50.552Z,24.20
2018-04-28T12:51:21.513Z,23.70
2018-04-28T12:53:50.961Z,22.50
2018-04-28T12:56:18.996Z,22.70
2018-04-28T12:58:48.745Z,24.20
2018-04-28T13:01:16.753Z,24.20
2018-04-28T13:03:46.713Z,24.90
2018-04-28T13:06:15.632Z,25.30
2018-04-28T13:08:43.629Z,24.50
2018-04-28T13:11:11.857Z,25.10
2018-04-28T13:13:39.888Z,24.20
2018-04-28T13:16:09.832Z,24.70
2018-04-28T13:18:38.805Z,24.90
2018-04-28T13:21:06.856Z,25.10
2018-04-28T13:23:34.952Z,25.20
2018-04-28T13:26:04.916Z,25.60
2018-04-28T13:28:42.556Z,25.20
2018-04-28T13:31:13.645Z,26.20
2018-04-28T13:33:41.656Z,26.00
2018-04-28T13:36:11.565Z,26.80
2018-04-28T13:38:42.252Z,25.10
2018-04-28T13:41:10.352Z,25.10
2018-04-28T13:43:38.276Z,24.80
2018-04-28T13:46:06.429Z,25.00
2018-04-28T13:48:36.329Z,25.30
2018-04-28T13:51:08.324Z,25.50
2018-04-28T13:53:37.301Z,25.90
2018-04-28T13:56:09.109Z,26.70
2018-04-28T13:58:38.069Z,27.40
2018-04-28T14:01:06.125Z,27.60
2018-04-28T14:03:35.065Z,28.10
2018-04-28T14:06:04.844Z,28.90
2018-04-28T14:08:33.824Z,29.30
2018-04-28T14:11:02.101Z,29.50
2018-04-28T14:13:35.773Z,29.60
2018-04-28T14:16:08.797Z,28.30
2018-04-28T14:18:36.839Z,27.70
2018-04-28T14:21:09.270Z,27.40
2018-04-28T14:23:39.081Z,26.10
2018-04-28T14:26:11.781Z,25.70
2018-04-28T14:28:40.533Z,25.60
2018-04-28T14:31:08.537Z,25.60
2018-04-28T14:33:37.524Z,24.20
2018-04-28T14:36:06.979Z,22.70
2018-04-28T14:38:34.968Z,22.60
2018-04-28T14:41:03.000Z,22.10
2018-04-28T14:43:31.012Z,22.00
2018-04-28T14:46:04.457Z,22.80
2018-04-28T14:48:32.464Z,23.50
2018-04-28T14:51:00.489Z,23.70
2018-04-28T14:53:28.524Z,23.60
2018-04-28T14:55:56.525Z,23.70
2018-04-28T14:58:28.048Z,24.30
2018-04-28T15:00:56.816Z,24.50
2018-04-28T15:03:24.953Z,24.50
2018-04-28T15:05:55.537Z,25.50
2018-04-28T15:08:24.792Z,26.30
2018-04-28T15:10:52.821Z,26.30
2018-04-28T15:13:29.327Z,26.60
2018-04-28T15:15:58.064Z,26.70
2018-04-28T15:18:28.760Z,27.50
2018-04-28T15:20:57.320Z,27.50
2018-04-28T15:23:26.291Z,27.50
2018-04-28T15:25:54.264Z,27.00
2018-04-28T15:28:22.357Z,26.70
2018-04-28T15:30:56.834Z,26.30
2018-04-28T15:33:29.967Z,27.00
2018-04-28T15:36:04.276Z,26.90
2018-04-28T15:38:34.179Z,27.20
2018-04-28T15:41:03.088Z,26.10
2018-04-28T15:43:32.096Z,26.90
2018-04-28T15:46:01.008Z,27.70
2018-04-28T15:48:29.012Z,28.10
2018-04-28T15:50:57.658Z,28.70
2018-04-28T15:53:25.607Z,29.00
2018-04-28T15:55:53.619Z,29.00
2018-04-28T15:58:23.387Z,28.30
2018-04-28T16:00:57.336Z,28.20
2018-04-28T16:03:30.387Z,28.40
2018-04-28T16:06:02.227Z,28.50
2018-04-28T16:08:31.988Z,27.70
2018-04-28T16:11:00.772Z,27.70
2018-04-28T16:13:29.564Z,27.30
2018-04-28T16:15:58.369Z,27.20
2018-04-28T16:18:27.516Z,27.40
2018-04-28T16:20:56.416Z,27.00
2018-04-28T16:23:24.540Z,26.40
2018-04-28T16:25:54.456Z,27.20
2018-04-28T16:28:22.460Z,27.40
2018-04-28T16:30:52.480Z,27.40
2018-04-28T16:33:21.460Z,26.90
2018-04-28T16:35:49.456Z,27.20
2018-04-28T16:38:20.984Z,27.50
2018-04-28T16:40:48.987Z,27.30
2018-04-28T16:43:16.997Z,27.10
2018-04-28T16:45:45.004Z,28.00
2018-04-28T16:48:13.004Z,28.90
2018-04-28T16:50:48.067Z,30.00
2018-04-28T16:53:16.798Z,30.40
2018-04-28T16:55:44.783Z,30.40
2018-04-28T16:58:13.564Z,32.50
2018-04-28T17:00:42.464Z,32.40
2018-04-28T17:03:12.368Z,32.10
2018-04-28T17:05:41.354Z,31.80
2018-04-28T17:08:09.348Z,32.00
2018-04-28T17:10:43.932Z,32.90
2018-04-28T17:13:11.994Z,33.40
2018-04-28T17:15:41.895Z,33.50
2018-04-28T17:18:23.235Z,33.20
2018-04-28T17:20:53.891Z,33.70
2018-04-28T17:23:25.207Z,33.60
2018-04-28T17:25:53.988Z,34.50
2018-04-28T17:28:22.943Z,34.40
2018-04-28T17:30:51.980Z,34.40
2018-04-28T17:33:19.979Z,34.50
2018-04-28T17:35:47.976Z,35.80
2018-04-28T17:38:16.880Z,36.30
2018-04-28T17:40:49.232Z,37.60
2018-04-28T17:43:17.247Z,38.20
2018-04-28T17:45:45.253Z,39.10
2018-04-28T17:48:13.255Z,40.30
2018-04-28T17:50:44.307Z,40.80
2018-04-28T17:53:13.487Z,41.70
2018-04-28T17:55:45.507Z,42.70
2018-04-28T17:58:15.259Z,44.60
2018-04-28T18:00:44.255Z,44.60
2018-04-28T18:03:12.287Z,45.50
2018-04-28T18:05:44.807Z,46.30
2018-04-28T18:08:13.655Z,47.20
2018-04-28T18:10:42.575Z,47.90
2018-04-28T18:13:10.588Z,48.80
2018-04-28T18:15:39.367Z,50.60
2018-04-28T18:18:08.559Z,50.40
2018-04-28T18:20:37.519Z,51.50
2018-04-28T18:23:05.559Z,52.90
2018-04-28T18:25:34.499Z,54.50
2018-04-28T18:28:03.475Z,56.60
2018-04-28T18:30:31.511Z,59.40
2018-04-28T18:32:59.527Z,62.60
2018-04-28T18:35:27.543Z,66.90
2018-04-28T18:37:56.335Z,77.00
2018-04-28T18:40:24.351Z,77.10
2018-04-28T18:42:53.867Z,83.30
2018-04-28T18:45:21.901Z,87.90
2018-04-28T18:47:49.911Z,90.90
2018-04-28T18:50:17.939Z,92.50
2018-04-28T18:52:45.971Z,93.60
2018-04-28T18:55:17.791Z,96.20
2018-04-28T18:57:45.811Z,96.20
2018-04-28T19:00:14.751Z,96.60
2018-04-28T19:02:42.839Z,97.60
2018-04-28T19:05:10.832Z,98.40
2018-04-28T19:07:39.608Z,99.50
2018-04-28T19:10:07.619Z,99.50
2018-04-28T19:12:36.659Z,99.90
2018-04-28T19:15:04.673Z,99.90
2018-04-28T19:17:33.587Z,99.90
2018-04-28T19:20:06.903Z,99.90
2018-04-28T19:22:34.922Z,99.90
2018-04-28T19:25:02.950Z,99.90
2018-04-28T19:27:30.959Z,99.90
2018-04-28T19:29:58.964Z,99.90
2018-04-28T19:32:26.983Z,99.90
2018-04-28T19:34:55.891Z,99.90
2018-04-28T19:37:23.899Z,99.90
2018-04-28T19:39:52.686Z,99.90
2018-04-28T19:42:20.723Z,99.90
2018-04-28T19:44:49.726Z,99.90
2018-04-28T19:47:17.787Z,99.90
2018-04-28T19:49:45.852Z,99.90
2018-04-28T19:52:18.403Z,99.90
2018-04-28T19:54:48.162Z,99.90
2018-04-28T19:57:16.162Z,99.90
2018-04-28T19:59:44.251Z,99.90
2018-04-28T20:02:13.247Z,99.90
2018-04-28T20:04:42.206Z,99.90
2018-04-28T20:07:10.254Z,99.90
2018-04-28T20:09:38.282Z,99.90
2018-04-28T20:12:13.682Z,99.90
2018-04-28T20:14:45.690Z,99.90
2018-04-28T20:17:18.402Z,99.90
2018-04-28T20:19:54.826Z,99.90
2018-04-28T20:22:34.634Z,99.90
2018-04-28T20:25:16.650Z,99.90
2018-04-28T20:27:44.650Z,99.90
2018-04-28T20:30:15.000Z,99.90
2018-04-28T20:32:42.972Z,99.90
2018-04-28T20:35:10.982Z,99.90
2018-04-28T20:37:39.002Z,99.90
2018-04-28T20:40:10.286Z,99.90
2018-04-28T20:42:39.298Z,99.90
2018-04-28T20:45:08.222Z,99.90
2018-04-28T20:47:38.206Z,99.90
2018-04-28T20:50:06.250Z,99.90
2018-04-28T20:52:34.255Z,99.90
2018-04-28T20:55:02.282Z,99.90
2018-04-28T20:57:31.283Z,99.90
2018-04-28T21:00:02.619Z,99.90
2018-04-28T21:02:39.074Z,99.90
2018-04-28T21:05:08.119Z,99.90
2018-04-28T21:07:41.802Z,99.90
2018-04-28T21:10:10.051Z,99.90
2018-04-28T21:12:38.046Z,99.90
2018-04-28T21:15:06.090Z,99.90
2018-04-28T21:17:38.006Z,99.90
2018-04-28T21:20:10.087Z,99.90
2018-04-28T21:22:38.898Z,99.90
2018-04-28T21:25:11.266Z,99.90
2018-04-28T21:27:39.317Z,99.90
2018-04-28T21:30:09.082Z,99.90
2018-04-28T21:32:37.117Z,99.90
2018-04-28T21:35:05.182Z,99.90
2018-04-28T21:37:34.114Z,99.90
2018-04-28T21:40:03.100Z,99.90
2018-04-28T21:42:31.146Z,99.90
2018-04-28T21:45:02.030Z,99.90
2018-04-28T21:47:33.737Z,99.90
2018-04-28T21:50:02.562Z,99.90
2018-04-28T21:52:30.598Z,99.90
2018-04-28T21:54:58.665Z,99.90
2018-04-28T21:57:26.690Z,99.90
2018-04-28T21:59:54.713Z,99.90
2018-04-28T22:02:23.825Z,99.90
2018-04-28T22:04:51.886Z,99.90
2018-04-28T22:07:20.706Z,99.90
2018-04-28T22:09:52.383Z,99.90
2018-04-28T22:12:20.409Z,99.90
2018-04-28T22:14:49.310Z,99.90
2018-04-28T22:17:18.254Z,99.90
2018-04-28T22:19:46.259Z,99.90
2018-04-28T22:22:15.157Z,99.90
2018-04-28T22:24:43.174Z,99.90
2018-04-28T22:27:11.186Z,99.90
2018-04-28T22:29:39.192Z,99.90
2018-04-28T22:32:09.221Z,99.90
2018-04-28T22:34:38.905Z,99.90
2018-04-28T22:37:06.933Z,99.90
2018-04-28T22:39:34.982Z,99.90
2018-04-28T22:42:03.008Z,99.90
2018-04-28T22:44:31.039Z,99.90
2018-04-28T22:47:00.074Z,99.90
2018-04-28T22:49:28.086Z,99.90
2018-04-28T22:51:56.865Z,99.90
2018-04-28T22:54:26.673Z,99.90
2018-04-28T22:56:55.485Z,99.90
2018-04-28T22:59:23.505Z,99.90
2018-04-28T23:01:53.522Z,99.90
2018-04-28T23:04:21.533Z,99.90
2018-04-28T23:06:49.631Z,99.90
2018-04-28T23:09:17.601Z,99.90
2018-04-28T23:11:45.627Z,99.90
2018-04-28T23:14:16.318Z,99.90
2018-04-28T23:16:45.325Z,99.90
2018-04-28T23:19:13.333Z,99.90
2018-04-28T23:21:41.350Z,99.90
2018-04-28T23:24:10.337Z,99.90
2018-04-28T23:26:38.357Z,99.90
2018-04-28T23:29:06.387Z,99.90
2018-04-28T23:31:34.406Z,99.90
2018-04-28T23:34:03.333Z,99.90
2018-04-28T23:36:31.345Z,99.90
2018-04-28T23:39:00.141Z,99.90
2018-04-28T23:41:28.163Z,99.90
2018-04-28T23:43:56.173Z,99.90
2018-04-28T23:46:25.863Z,99.90
2018-04-28T23:48:53.863Z,99.90
2018-04-28T23:51:21.891Z,99.90
2018-04-28T23:53:53.126Z,99.90
2018-04-28T23:56:21.149Z,99.90
2018-04-28T23:58:51.097Z,99.90
